sensor_id;sensor_type;location;lat;lon;timestamp;temperature;humidity
2543;DHT22;1116;51.502;7.414;2023-04-01T00:02:13;10.60;99.90
2543;DHT22;1116;51.502;7.414;2023-04-01T00:04:44;10.60;99.90
2543;DHT22;1116;51.502;7.414;2023-04-01T00:07:21;10.60;99.90
2543;DHT22;1116;51.502;7.414;2023-04-01T00:09:57;10.60;99.90
2543;DHT22;1116;51.502;7.414;2023-04-01T00:12:28;10.60;99.90
2543;DHT22;1116;51.502;7.414;2023-04-01T00:14:59;10.60;99.90
2543;DHT22;1116;51.502;7.414;2023-04-01T00:17:30;10.60;99.90
2543;DHT22;1116;51.502;7.414;2023-04-01T00:20:04;10.60;99.90
2543;DHT22;1116;51.502;7.414;2023-04-01T00:22:38;10.50;99.90
2543;DHT22;1116;51.502;7.414;2023-04-01T00:25:10;10.60;99.90
2543;DHT22;1116;51.502;7.414;2023-04-01T00:27:41;10.50;99.90
2543;DHT22;1116;51.502;7.414;2023-04-01T00:30:15;10.50;99.90
2543;DHT22;1116;51.502;7.414;2023-04-01T00:32:49;10.60;99.90
2543;DHT22;1116;51.502;7.414;2023-04-01T00:35:22;10.60;99.90
2543;DHT22;1116;51.502;7.414;2023-04-01T00:37:56;10.60;99.90
2543;DHT22;1116;51.502;7.414;2023-04-01T00:40:28;10.60;99.90
2543;DHT22;1116;51.502;7.414;2023-04-01T00:43:00;10.50;99.90
2543;DHT22;1116;51.502;7.414;2023-04-01T00:45:33;10.60;99.90
2543;DHT22;1116;51.502;7.414;2023-04-01T00:48:09;10.50;99.90
2543;DHT22;1116;51.502;7.414;2023-04-01T00:50:43;10.40;99.90
2543;DHT22;1116;51.502;7.414;2023-04-01T00:53:18;10.40;99.90
2543;DHT22;1116;51.502;7.414;2023-04-01T00:55:53;10.40;99.90
2543;DHT22;1116;51.502;7.414;2023-04-01T00:58:32;10.50;99.90
2543;DHT22;1116;51.502;7.414;2023-04-01T01:01:06;10.50;99.90
2543;DHT22;1116;51.502;7.414;2023-04-01T01:03:41;10.50;99.90
2543;DHT22;1116;51.502;7.414;2023-04-01T01:06:26;10.50;99.90
2543;DHT22;1116;51.502;7.414;2023-04-01T01:09:14;10.50;99.90
2543;DHT22;1116;51.502;7.414;2023-04-01T01:11:55;10.50;99.90
2543;DHT22;1116;51.502;7.414;2023-04-01T01:14:42;10.50;99.90
2543;DHT22;1116;51.502;7.414;2023-04-01T01:17:26;10.50;99.90
2543;DHT22;1116;51.502;7.414;2023-04-01T01:23:15;10.50;99.90
2543;DHT22;1116;51.502;7.414;2023-04-01T01:26:05;10.40;99.90
2543;DHT22;1116;51.502;7.414;2023-04-01T01:28:47;10.40;99.90
2543;DHT22;1116;51.502;7.414;2023-04-01T01:31:28;10.40;99.90
2543;DHT22;1116;51.502;7.414;2023-04-01T01:34:11;10.40;99.90
2543;DHT22;1116;51.502;7.414;2023-04-01T01:36:52;10.30;99.90
2543;DHT22;1116;51.502;7.414;2023-04-01T01:39:30;10.30;99.90
2543;DHT22;1116;51.502;7.414;2023-04-01T01:42:06;10.40;99.90
2543;DHT22;1116;51.502;7.414;2023-04-01T01:44:43;10.80;99.90
2543;DHT22;1116;51.502;7.414;2023-04-01T01:47:16;10.40;99.90
2543;DHT22;1116;51.502;7.414;2023-04-01T01:49:47;10.40;99.90
2543;DHT22;1116;51.502;7.414;2023-04-01T01:52:26;10.30;99.90
2543;DHT22;1116;51.502;7.414;2023-04-01T01:54:58;10.30;99.90
2543;DHT22;1116;51.502;7.414;2023-04-01T01:58:00;10.30;99.90
2543;DHT22;1116;51.502;7.414;2023-04-01T02:01:00;10.40;99.90
2543;DHT22;1116;51.502;7.414;2023-04-01T02:03:35;10.30;99.90
2543;DHT22;1116;51.502;7.414;2023-04-01T02:06:10;10.40;99.90
2543;DHT22;1116;51.502;7.414;2023-04-01T02:08:48;10.40;99.90
2543;DHT22;1116;51.502;7.414;2023-04-01T02:11:24;10.40;99.90
2543;DHT22;1116;51.502;7.414;2023-04-01T02:14:01;10.40;99.90
2543;DHT22;1116;51.502;7.414;2023-04-01T02:16:36;10.40;99.90
2543;DHT22;1116;51.502;7.414;2023-04-01T02:19:10;10.40;99.90
2543;DHT22;1116;51.502;7.414;2023-04-01T02:21:42;10.40;99.90
2543;DHT22;1116;51.502;7.414;2023-04-01T02:24:20;10.30;99.90
2543;DHT22;1116;51.502;7.414;2023-04-01T02:26:52;10.30;99.90
2543;DHT22;1116;51.502;7.414;2023-04-01T02:29:25;10.40;99.90
2543;DHT22;1116;51.502;7.414;2023-04-01T02:31:56;10.30;99.90
2543;DHT22;1116;51.502;7.414;2023-04-01T02:34:29;10.70;99.90
2543;DHT22;1116;51.502;7.414;2023-04-01T02:37:01;10.60;99.90
2543;DHT22;1116;51.502;7.414;2023-04-01T02:39:35;10.30;99.90
2543;DHT22;1116;51.502;7.414;2023-04-01T02:42:06;10.30;99.90
2543;DHT22;1116;51.502;7.414;2023-04-01T02:44:37;10.30;99.90
2543;DHT22;1116;51.502;7.414;2023-04-01T02:47:08;10.20;99.90
2543;DHT22;1116;51.502;7.414;2023-04-01T02:49:39;10.20;99.90
2543;DHT22;1116;51.502;7.414;2023-04-01T02:52:13;10.20;99.90
2543;DHT22;1116;51.502;7.414;2023-04-01T02:54:50;10.20;99.90
2543;DHT22;1116;51.502;7.414;2023-04-01T02:57:21;10.20;99.90
2543;DHT22;1116;51.502;7.414;2023-04-01T02:59:53;10.20;99.90
2543;DHT22;1116;51.502;7.414;2023-04-01T03:02:24;10.20;99.90
2543;DHT22;1116;51.502;7.414;2023-04-01T03:04:55;10.20;99.90
2543;DHT22;1116;51.502;7.414;2023-04-01T03:07:27;10.20;99.90
2543;DHT22;1116;51.502;7.414;2023-04-01T03:10:03;10.20;99.90
2543;DHT22;1116;51.502;7.414;2023-04-01T03:12:35;10.20;99.90
2543;DHT22;1116;51.502;7.414;2023-04-01T03:15:08;10.20;99.90
2543;DHT22;1116;51.502;7.414;2023-04-01T03:17:42;10.20;99.90
2543;DHT22;1116;51.502;7.414;2023-04-01T03:20:15;10.20;99.90
2543;DHT22;1116;51.502;7.414;2023-04-01T03:22:45;10.60;99.90
2543;DHT22;1116;51.502;7.414;2023-04-01T03:25:19;10.20;99.90
2543;DHT22;1116;51.502;7.414;2023-04-01T03:27:51;10.20;99.90
2543;DHT22;1116;51.502;7.414;2023-04-01T03:30:22;10.10;99.90
2543;DHT22;1116;51.502;7.414;2023-04-01T03:32:54;10.20;99.90
2543;DHT22;1116;51.502;7.414;2023-04-01T03:35:25;10.10;99.90
2543;DHT22;1116;51.502;7.414;2023-04-01T03:38:00;10.20;99.90
2543;DHT22;1116;51.502;7.414;2023-04-01T03:40:33;10.20;99.90
2543;DHT22;1116;51.502;7.414;2023-04-01T03:43:06;10.30;99.90
2543;DHT22;1116;51.502;7.414;2023-04-01T03:45:43;10.30;99.90
2543;DHT22;1116;51.502;7.414;2023-04-01T03:48:16;10.20;99.90
2543;DHT22;1116;51.502;7.414;2023-04-01T03:50:48;10.20;99.90
2543;DHT22;1116;51.502;7.414;2023-04-01T03:53:19;10.30;99.90
2543;DHT22;1116;51.502;7.414;2023-04-01T03:55:54;10.20;99.90
2543;DHT22;1116;51.502;7.414;2023-04-01T03:58:25;10.10;99.90
2543;DHT22;1116;51.502;7.414;2023-04-01T04:00:58;10.10;99.90
2543;DHT22;1116;51.502;7.414;2023-04-01T04:03:29;10.10;99.90
2543;DHT22;1116;51.502;7.414;2023-04-01T04:06:01;10.10;99.90
2543;DHT22;1116;51.502;7.414;2023-04-01T04:08:32;10.10;99.90
2543;DHT22;1116;51.502;7.414;2023-04-01T04:11:05;10.10;99.90
2543;DHT22;1116;51.502;7.414;2023-04-01T04:13:37;10.10;99.90
2543;DHT22;1116;51.502;7.414;2023-04-01T04:16:11;10.10;99.90
2543;DHT22;1116;51.502;7.414;2023-04-01T04:18:45;9.70;99.90
2543;DHT22;1116;51.502;7.414;2023-04-01T04:21:19;10.10;99.90
2543;DHT22;1116;51.502;7.414;2023-04-01T04:23:52;10.10;99.90
2543;DHT22;1116;51.502;7.414;2023-04-01T04:26:26;10.10;99.90
2543;DHT22;1116;51.502;7.414;2023-04-01T04:28:57;10.10;99.90
2543;DHT22;1116;51.502;7.414;2023-04-01T04:31:28;10.50;99.90
2543;DHT22;1116;51.502;7.414;2023-04-01T04:33:59;10.10;99.90
2543;DHT22;1116;51.502;7.414;2023-04-01T04:36:31;10.10;99.90
2543;DHT22;1116;51.502;7.414;2023-04-01T04:39:02;10.10;99.90
2543;DHT22;1116;51.502;7.414;2023-04-01T04:41:39;10.10;99.90
2543;DHT22;1116;51.502;7.414;2023-04-01T04:44:11;10.10;99.90
2543;DHT22;1116;51.502;7.414;2023-04-01T04:46:42;10.40;99.90
2543;DHT22;1116;51.502;7.414;2023-04-01T04:49:13;10.10;99.90
2543;DHT22;1116;51.502;7.414;2023-04-01T04:51:47;10.10;99.90
2543;DHT22;1116;51.502;7.414;2023-04-01T04:54:18;10.20;99.90
2543;DHT22;1116;51.502;7.414;2023-04-01T04:56:54;10.10;99.90
2543;DHT22;1116;51.502;7.414;2023-04-01T04:59:25;10.20;99.90
2543;DHT22;1116;51.502;7.414;2023-04-01T05:01:56;9.90;99.90
2543;DHT22;1116;51.502;7.414;2023-04-01T05:04:34;10.30;99.90
2543;DHT22;1116;51.502;7.414;2023-04-01T05:07:05;10.20;99.90
2543;DHT22;1116;51.502;7.414;2023-04-01T05:09:36;10.20;99.90
2543;DHT22;1116;51.502;7.414;2023-04-01T05:12:10;10.20;99.90
2543;DHT22;1116;51.502;7.414;2023-04-01T05:14:41;10.20;99.90
2543;DHT22;1116;51.502;7.414;2023-04-01T05:17:13;10.20;99.90
2543;DHT22;1116;51.502;7.414;2023-04-01T05:19:44;10.40;99.90
2543;DHT22;1116;51.502;7.414;2023-04-01T05:22:15;10.30;99.90
2543;DHT22;1116;51.502;7.414;2023-04-01T05:24:48;10.30;99.90
2543;DHT22;1116;51.502;7.414;2023-04-01T05:27:22;10.30;99.90
2543;DHT22;1116;51.502;7.414;2023-04-01T05:29:53;10.30;99.90
2543;DHT22;1116;51.502;7.414;2023-04-01T05:32:24;10.30;99.90
2543;DHT22;1116;51.502;7.414;2023-04-01T05:34:55;10.30;99.90
2543;DHT22;1116;51.502;7.414;2023-04-01T05:37:29;10.30;99.90
2543;DHT22;1116;51.502;7.414;2023-04-01T05:40:02;10.40;99.90
2543;DHT22;1116;51.502;7.414;2023-04-01T05:42:36;10.30;99.90
2543;DHT22;1116;51.502;7.414;2023-04-01T05:45:08;10.40;99.90
2543;DHT22;1116;51.502;7.414;2023-04-01T05:47:39;10.40;99.90
2543;DHT22;1116;51.502;7.414;2023-04-01T05:50:10;10.40;99.90
2543;DHT22;1116;51.502;7.414;2023-04-01T05:52:41;10.40;99.90
2543;DHT22;1116;51.502;7.414;2023-04-01T05:55:12;10.50;99.90
2543;DHT22;1116;51.502;7.414;2023-04-01T05:57:47;10.40;99.90
2543;DHT22;1116;51.502;7.414;2023-04-01T06:00:21;10.40;99.90
2543;DHT22;1116;51.502;7.414;2023-04-01T06:02:52;10.40;99.90
2543;DHT22;1116;51.502;7.414;2023-04-01T06:05:27;10.40;99.90
2543;DHT22;1116;51.502;7.414;2023-04-01T06:08:04;10.50;99.90
2543;DHT22;1116;51.502;7.414;2023-04-01T06:10:43;10.60;99.90
2543;DHT22;1116;51.502;7.414;2023-04-01T06:13:32;10.60;99.90
2543;DHT22;1116;51.502;7.414;2023-04-01T06:16:10;10.60;99.90
2543;DHT22;1116;51.502;7.414;2023-04-01T06:19:02;10.60;99.90
2543;DHT22;1116;51.502;7.414;2023-04-01T06:21:55;10.70;99.90
2543;DHT22;1116;51.502;7.414;2023-04-01T06:24:45;10.70;99.90
2543;DHT22;1116;51.502;7.414;2023-04-01T06:27:27;10.70;99.90
2543;DHT22;1116;51.502;7.414;2023-04-01T06:30:23;10.60;99.90
2543;DHT22;1116;51.502;7.414;2023-04-01T06:33:09;10.60;99.90
2543;DHT22;1116;51.502;7.414;2023-04-01T06:36:06;10.70;99.90
2543;DHT22;1116;51.502;7.414;2023-04-01T06:38:55;10.70;99.90
2543;DHT22;1116;51.502;7.414;2023-04-01T06:44:47;10.80;99.90
2543;DHT22;1116;51.502;7.414;2023-04-01T06:47:32;10.80;99.90
2543;DHT22;1116;51.502;7.414;2023-04-01T06:50:14;10.90;99.90
2543;DHT22;1116;51.502;7.414;2023-04-01T06:53:00;10.80;99.90
2543;DHT22;1116;51.502;7.414;2023-04-01T06:55:42;10.70;99.90
2543;DHT22;1116;51.502;7.414;2023-04-01T06:58:20;10.70;99.90
2543;DHT22;1116;51.502;7.414;2023-04-01T07:00:57;10.80;99.90
2543;DHT22;1116;51.502;7.414;2023-04-01T07:03:34;10.90;99.90
2543;DHT22;1116;51.502;7.414;2023-04-01T07:06:13;10.70;99.90
2543;DHT22;1116;51.502;7.414;2023-04-01T07:08:45;10.70;99.90
2543;DHT22;1116;51.502;7.414;2023-04-01T07:11:22;10.70;99.90
2543;DHT22;1116;51.502;7.414;2023-04-01T07:13:58;10.70;99.90
2543;DHT22;1116;51.502;7.414;2023-04-01T07:16:33;10.70;99.90
2543;DHT22;1116;51.502;7.414;2023-04-01T07:19:14;10.70;99.90
2543;DHT22;1116;51.502;7.414;2023-04-01T07:21:52;10.70;99.90
2543;DHT22;1116;51.502;7.414;2023-04-01T07:24:32;10.70;99.90
2543;DHT22;1116;51.502;7.414;2023-04-01T07:27:09;11.10;99.90
2543;DHT22;1116;51.502;7.414;2023-04-01T07:29:41;10.90;99.90
2543;DHT22;1116;51.502;7.414;2023-04-01T07:32:31;10.70;99.90
2543;DHT22;1116;51.502;7.414;2023-04-01T07:35:16;10.70;99.90
2543;DHT22;1116;51.502;7.414;2023-04-01T07:38:05;10.70;99.90
2543;DHT22;1116;51.502;7.414;2023-04-01T07:40:45;10.70;99.90
2543;DHT22;1116;51.502;7.414;2023-04-01T07:43:33;10.70;99.90
2543;DHT22;1116;51.502;7.414;2023-04-01T07:46:15;10.70;99.90
2543;DHT22;1116;51.502;7.414;2023-04-01T07:48:54;10.80;99.90
2543;DHT22;1116;51.502;7.414;2023-04-01T07:51:34;10.80;99.90
2543;DHT22;1116;51.502;7.414;2023-04-01T07:54:10;10.90;99.90
2543;DHT22;1116;51.502;7.414;2023-04-01T07:56:47;10.90;99.90
2543;DHT22;1116;51.502;7.414;2023-04-01T07:59:27;11.00;99.90
2543;DHT22;1116;51.502;7.414;2023-04-01T08:02:08;10.90;99.90
2543;DHT22;1116;51.502;7.414;2023-04-01T08:04:53;10.90;99.90
2543;DHT22;1116;51.502;7.414;2023-04-01T08:07:36;11.00;99.90
2543;DHT22;1116;51.502;7.414;2023-04-01T08:10:17;10.90;99.90
2543;DHT22;1116;51.502;7.414;2023-04-01T08:12:59;10.90;99.90
2543;DHT22;1116;51.502;7.414;2023-04-01T08:15:37;10.90;99.90
2543;DHT22;1116;51.502;7.414;2023-04-01T08:18:19;10.90;99.90
2543;DHT22;1116;51.502;7.414;2023-04-01T08:20:57;10.90;99.90
2543;DHT22;1116;51.502;7.414;2023-04-01T08:23:45;10.90;99.90
2543;DHT22;1116;51.502;7.414;2023-04-01T08:26:23;11.00;99.90
2543;DHT22;1116;51.502;7.414;2023-04-01T08:29:03;11.00;99.90
2543;DHT22;1116;51.502;7.414;2023-04-01T08:31:40;11.20;99.90
2543;DHT22;1116;51.502;7.414;2023-04-01T08:34:16;11.10;99.90
2543;DHT22;1116;51.502;7.414;2023-04-01T08:36:57;11.20;99.90
2543;DHT22;1116;51.502;7.414;2023-04-01T08:39:37;11.30;99.90
2543;DHT22;1116;51.502;7.414;2023-04-01T08:42:41;11.30;99.90
2543;DHT22;1116;51.502;7.414;2023-04-01T08:45:53;11.30;99.90
2543;DHT22;1116;51.502;7.414;2023-04-01T08:49:12;11.20;99.90
2543;DHT22;1116;51.502;7.414;2023-04-01T08:52:10;11.50;99.90
2543;DHT22;1116;51.502;7.414;2023-04-01T08:55:04;11.10;99.90
2543;DHT22;1116;51.502;7.414;2023-04-01T08:58:02;11.50;99.90
2543;DHT22;1116;51.502;7.414;2023-04-01T09:00:40;11.00;99.90
2543;DHT22;1116;51.502;7.414;2023-04-01T09:03:36;11.40;99.90
2543;DHT22;1116;51.502;7.414;2023-04-01T09:06:31;11.00;99.90
2543;DHT22;1116;51.502;7.414;2023-04-01T09:12:52;11.00;99.90
2543;DHT22;1116;51.502;7.414;2023-04-01T09:15:42;11.00;99.90
2543;DHT22;1116;51.502;7.414;2023-04-01T09:18:46;11.00;99.90
2543;DHT22;1116;51.502;7.414;2023-04-01T09:21:31;11.00;99.90
2543;DHT22;1116;51.502;7.414;2023-04-01T09:24:31;11.00;99.90
2543;DHT22;1116;51.502;7.414;2023-04-01T09:27:05;11.00;99.90
2543;DHT22;1116;51.502;7.414;2023-04-01T09:30:03;11.00;99.90
2543;DHT22;1116;51.502;7.414;2023-04-01T09:33:07;11.00;99.90
2543;DHT22;1116;51.502;7.414;2023-04-01T09:35:47;11.00;99.90
2543;DHT22;1116;51.502;7.414;2023-04-01T09:38:29;10.90;99.90
2543;DHT22;1116;51.502;7.414;2023-04-01T09:41:13;11.00;99.90
2543;DHT22;1116;51.502;7.414;2023-04-01T09:43:57;11.20;99.90
2543;DHT22;1116;51.502;7.414;2023-04-01T09:46:43;11.00;99.90
2543;DHT22;1116;51.502;7.414;2023-04-01T09:49:35;11.00;99.90
2543;DHT22;1116;51.502;7.414;2023-04-01T09:52:26;11.00;99.90
2543;DHT22;1116;51.502;7.414;2023-04-01T09:55:18;11.10;99.90
2543;DHT22;1116;51.502;7.414;2023-04-01T10:01:15;11.10;99.90
2543;DHT22;1116;51.502;7.414;2023-04-01T10:10:30;11.10;99.90
2543;DHT22;1116;51.502;7.414;2023-04-01T10:22:57;11.60;99.90
2543;DHT22;1116;51.502;7.414;2023-04-01T10:25:56;11.60;99.90
2543;DHT22;1116;51.502;7.414;2023-04-01T10:35:20;11.70;99.90
2543;DHT22;1116;51.502;7.414;2023-04-01T10:45:00;11.60;99.90
2543;DHT22;1116;51.502;7.414;2023-04-01T11:03:53;11.80;99.90
2543;DHT22;1116;51.502;7.414;2023-04-01T11:22:28;11.90;99.90
2543;DHT22;1116;51.502;7.414;2023-04-01T11:28:32;11.70;99.90
2543;DHT22;1116;51.502;7.414;2023-04-01T11:31:19;11.70;99.90
2543;DHT22;1116;51.502;7.414;2023-04-01T11:33:57;11.70;99.90
2543;DHT22;1116;51.502;7.414;2023-04-01T11:36:43;11.60;99.90
2543;DHT22;1116;51.502;7.414;2023-04-01T11:39:26;11.60;99.90
2543;DHT22;1116;51.502;7.414;2023-04-01T11:42:09;11.80;99.90
2543;DHT22;1116;51.502;7.414;2023-04-01T11:44:51;11.50;99.90
2543;DHT22;1116;51.502;7.414;2023-04-01T11:47:52;11.50;99.90
2543;DHT22;1116;51.502;7.414;2023-04-01T11:50:41;11.60;99.90
2543;DHT22;1116;51.502;7.414;2023-04-01T11:53:23;11.60;99.90
2543;DHT22;1116;51.502;7.414;2023-04-01T11:56:18;11.70;99.90
2543;DHT22;1116;51.502;7.414;2023-04-01T12:01:59;11.50;99.90
2543;DHT22;1116;51.502;7.414;2023-04-01T12:04:49;11.50;99.90
2543;DHT22;1116;51.502;7.414;2023-04-01T12:07:42;11.50;99.90
2543;DHT22;1116;51.502;7.414;2023-04-01T12:10:18;11.50;99.90
2543;DHT22;1116;51.502;7.414;2023-04-01T12:13:12;11.60;99.90
2543;DHT22;1116;51.502;7.414;2023-04-01T12:16:08;11.40;99.90
2543;DHT22;1116;51.502;7.414;2023-04-01T12:18:46;11.80;99.90
2543;DHT22;1116;51.502;7.414;2023-04-01T12:21:25;11.80;99.90
2543;DHT22;1116;51.502;7.414;2023-04-01T12:24:25;11.80;99.90
2543;DHT22;1116;51.502;7.414;2023-04-01T12:27:06;11.80;99.90
2543;DHT22;1116;51.502;7.414;2023-04-01T12:30:02;11.80;99.90
2543;DHT22;1116;51.502;7.414;2023-04-01T12:32:41;11.90;99.90
2543;DHT22;1116;51.502;7.414;2023-04-01T12:35:20;11.90;99.90
2543;DHT22;1116;51.502;7.414;2023-04-01T12:38:14;11.80;99.90
2543;DHT22;1116;51.502;7.414;2023-04-01T12:41:07;11.80;99.90
2543;DHT22;1116;51.502;7.414;2023-04-01T12:47:00;11.80;99.90
2543;DHT22;1116;51.502;7.414;2023-04-01T12:50:00;11.70;99.90
2543;DHT22;1116;51.502;7.414;2023-04-01T12:52:48;11.70;99.90
2543;DHT22;1116;51.502;7.414;2023-04-01T12:55:36;11.70;99.90
2543;DHT22;1116;51.502;7.414;2023-04-01T12:58:38;11.70;99.90
2543;DHT22;1116;51.502;7.414;2023-04-01T13:01:31;11.80;99.90
2543;DHT22;1116;51.502;7.414;2023-04-01T13:04:41;11.90;99.90
2543;DHT22;1116;51.502;7.414;2023-04-01T13:07:38;12.00;99.90
2543;DHT22;1116;51.502;7.414;2023-04-01T13:10:24;12.00;99.90
2543;DHT22;1116;51.502;7.414;2023-04-01T13:13:18;12.00;99.90
2543;DHT22;1116;51.502;7.414;2023-04-01T13:15:57;12.00;99.90
2543;DHT22;1116;51.502;7.414;2023-04-01T13:18:35;12.00;99.90
2543;DHT22;1116;51.502;7.414;2023-04-01T13:21:16;12.00;99.90
2543;DHT22;1116;51.502;7.414;2023-04-01T13:23:57;12.00;99.90
2543;DHT22;1116;51.502;7.414;2023-04-01T13:26:35;12.20;99.90
2543;DHT22;1116;51.502;7.414;2023-04-01T13:29:13;11.80;99.90
2543;DHT22;1116;51.502;7.414;2023-04-01T13:31:55;11.80;99.90
2543;DHT22;1116;51.502;7.414;2023-04-01T13:34:38;11.70;99.90
2543;DHT22;1116;51.502;7.414;2023-04-01T13:37:24;11.70;99.90
2543;DHT22;1116;51.502;7.414;2023-04-01T13:40:18;11.70;99.90
2543;DHT22;1116;51.502;7.414;2023-04-01T13:42:56;11.50;99.90
2543;DHT22;1116;51.502;7.414;2023-04-01T13:45:38;11.70;99.90
2543;DHT22;1116;51.502;7.414;2023-04-01T13:48:33;11.70;99.90
2543;DHT22;1116;51.502;7.414;2023-04-01T13:51:25;11.60;99.90
2543;DHT22;1116;51.502;7.414;2023-04-01T13:54:28;11.50;99.90
2543;DHT22;1116;51.502;7.414;2023-04-01T13:57:23;11.60;99.90
2543;DHT22;1116;51.502;7.414;2023-04-01T14:00:25;11.60;99.90
2543;DHT22;1116;51.502;7.414;2023-04-01T14:03:20;11.70;99.90
2543;DHT22;1116;51.502;7.414;2023-04-01T14:06:11;11.80;99.90
2543;DHT22;1116;51.502;7.414;2023-04-01T14:08:59;11.70;99.90
2543;DHT22;1116;51.502;7.414;2023-04-01T14:11:50;11.70;99.90
2543;DHT22;1116;51.502;7.414;2023-04-01T14:14:33;11.70;99.90
2543;DHT22;1116;51.502;7.414;2023-04-01T14:17:36;11.80;99.90
2543;DHT22;1116;51.502;7.414;2023-04-01T14:20:32;11.80;99.90
2543;DHT22;1116;51.502;7.414;2023-04-01T14:23:18;11.80;99.90
2543;DHT22;1116;51.502;7.414;2023-04-01T14:29:24;11.90;99.90
2543;DHT22;1116;51.502;7.414;2023-04-01T14:32:14;11.90;99.90
2543;DHT22;1116;51.502;7.414;2023-04-01T14:35:13;12.00;99.90
2543;DHT22;1116;51.502;7.414;2023-04-01T14:37:58;11.90;99.90
2543;DHT22;1116;51.502;7.414;2023-04-01T14:40:51;11.80;99.90
2543;DHT22;1116;51.502;7.414;2023-04-01T14:46:50;11.70;99.90
2543;DHT22;1116;51.502;7.414;2023-04-01T14:49:29;11.70;99.90
2543;DHT22;1116;51.502;7.414;2023-04-01T14:52:11;11.70;99.90
2543;DHT22;1116;51.502;7.414;2023-04-01T14:54:46;11.70;99.90
2543;DHT22;1116;51.502;7.414;2023-04-01T14:57:24;11.70;99.90
2543;DHT22;1116;51.502;7.414;2023-04-01T15:00:00;11.60;99.90
2543;DHT22;1116;51.502;7.414;2023-04-01T15:02:53;11.60;99.90
2543;DHT22;1116;51.502;7.414;2023-04-01T15:05:40;11.60;99.90
2543;DHT22;1116;51.502;7.414;2023-04-01T15:08:21;11.50;99.90
2543;DHT22;1116;51.502;7.414;2023-04-01T15:16:53;11.70;99.90
2543;DHT22;1116;51.502;7.414;2023-04-01T15:19:38;11.70;99.90
2543;DHT22;1116;51.502;7.414;2023-04-01T15:22:38;11.70;99.90
2543;DHT22;1116;51.502;7.414;2023-04-01T15:25:30;11.90;99.90
2543;DHT22;1116;51.502;7.414;2023-04-01T15:28:09;11.80;99.90
2543;DHT22;1116;51.502;7.414;2023-04-01T15:30:51;11.90;99.90
2543;DHT22;1116;51.502;7.414;2023-04-01T15:33:47;12.50;99.90
2543;DHT22;1116;51.502;7.414;2023-04-01T15:36:57;12.00;99.90
2543;DHT22;1116;51.502;7.414;2023-04-01T15:39:44;12.10;99.90
2543;DHT22;1116;51.502;7.414;2023-04-01T15:42:37;12.00;99.90
2543;DHT22;1116;51.502;7.414;2023-04-01T15:45:31;12.10;99.90
2543;DHT22;1116;51.502;7.414;2023-04-01T15:48:13;12.00;99.90
2543;DHT22;1116;51.502;7.414;2023-04-01T15:51:14;11.90;99.90
2543;DHT22;1116;51.502;7.414;2023-04-01T15:54:01;11.90;99.90
2543;DHT22;1116;51.502;7.414;2023-04-01T15:56:45;11.80;99.90
2543;DHT22;1116;51.502;7.414;2023-04-01T15:59:41;11.80;99.90
2543;DHT22;1116;51.502;7.414;2023-04-01T16:02:21;11.80;99.90
2543;DHT22;1116;51.502;7.414;2023-04-01T16:04:58;11.80;99.90
2543;DHT22;1116;51.502;7.414;2023-04-01T16:07:55;11.70;99.90
2543;DHT22;1116;51.502;7.414;2023-04-01T16:10:48;11.70;99.90
2543;DHT22;1116;51.502;7.414;2023-04-01T16:13:30;11.80;99.90
2543;DHT22;1116;51.502;7.414;2023-04-01T16:16:15;11.80;99.90
2543;DHT22;1116;51.502;7.414;2023-04-01T16:18:58;11.80;99.90
2543;DHT22;1116;51.502;7.414;2023-04-01T16:21:38;11.80;99.90
2543;DHT22;1116;51.502;7.414;2023-04-01T16:24:22;12.20;99.90
2543;DHT22;1116;51.502;7.414;2023-04-01T16:27:03;11.70;99.90
2543;DHT22;1116;51.502;7.414;2023-04-01T16:29:41;12.10;99.90
2543;DHT22;1116;51.502;7.414;2023-04-01T16:32:31;11.70;99.90
2543;DHT22;1116;51.502;7.414;2023-04-01T16:35:21;11.60;99.90
2543;DHT22;1116;51.502;7.414;2023-04-01T16:37:59;11.70;99.90
2543;DHT22;1116;51.502;7.414;2023-04-01T16:40:43;11.60;99.90
2543;DHT22;1116;51.502;7.414;2023-04-01T16:43:24;11.60;99.90
2543;DHT22;1116;51.502;7.414;2023-04-01T16:46:21;11.60;99.90
2543;DHT22;1116;51.502;7.414;2023-04-01T16:49:03;11.60;99.90
2543;DHT22;1116;51.502;7.414;2023-04-01T16:51:44;11.60;99.90
2543;DHT22;1116;51.502;7.414;2023-04-01T16:54:28;11.50;99.90
2543;DHT22;1116;51.502;7.414;2023-04-01T16:57:11;11.60;99.90
2543;DHT22;1116;51.502;7.414;2023-04-01T16:59:53;11.60;99.90
2543;DHT22;1116;51.502;7.414;2023-04-01T17:02:33;11.60;99.90
2543;DHT22;1116;51.502;7.414;2023-04-01T17:05:09;11.80;99.90
2543;DHT22;1116;51.502;7.414;2023-04-01T17:07:48;11.50;99.90
2543;DHT22;1116;51.502;7.414;2023-04-01T17:10:32;11.50;99.90
2543;DHT22;1116;51.502;7.414;2023-04-01T17:13:29;11.50;99.90
2543;DHT22;1116;51.502;7.414;2023-04-01T17:16:19;11.50;99.90
2543;DHT22;1116;51.502;7.414;2023-04-01T17:19:04;11.40;99.90
2543;DHT22;1116;51.502;7.414;2023-04-01T17:21:48;11.40;99.90
2543;DHT22;1116;51.502;7.414;2023-04-01T17:24:30;11.40;99.90
2543;DHT22;1116;51.502;7.414;2023-04-01T17:27:13;11.40;99.90
2543;DHT22;1116;51.502;7.414;2023-04-01T17:32:59;11.40;99.90
2543;DHT22;1116;51.502;7.414;2023-04-01T17:35:36;11.50;99.90
2543;DHT22;1116;51.502;7.414;2023-04-01T17:38:17;11.40;99.90
2543;DHT22;1116;51.502;7.414;2023-04-01T17:41:05;11.40;99.90
2543;DHT22;1116;51.502;7.414;2023-04-01T17:43:47;11.50;99.90
2543;DHT22;1116;51.502;7.414;2023-04-01T17:46:30;11.50;99.90
2543;DHT22;1116;51.502;7.414;2023-04-01T17:49:19;11.50;99.90
2543;DHT22;1116;51.502;7.414;2023-04-01T17:51:59;11.50;99.90
2543;DHT22;1116;51.502;7.414;2023-04-01T17:54:39;11.50;99.90
2543;DHT22;1116;51.502;7.414;2023-04-01T17:57:34;11.50;99.90
2543;DHT22;1116;51.502;7.414;2023-04-01T18:00:24;11.60;99.90
2543;DHT22;1116;51.502;7.414;2023-04-01T18:03:23;11.60;99.90
2543;DHT22;1116;51.502;7.414;2023-04-01T18:06:03;11.60;99.90
2543;DHT22;1116;51.502;7.414;2023-04-01T18:08:47;11.60;99.90
2543;DHT22;1116;51.502;7.414;2023-04-01T18:11:34;11.60;99.90
2543;DHT22;1116;51.502;7.414;2023-04-01T18:14:31;11.50;99.90
2543;DHT22;1116;51.502;7.414;2023-04-01T18:17:24;11.50;99.90
2543;DHT22;1116;51.502;7.414;2023-04-01T18:20:07;11.40;99.90
2543;DHT22;1116;51.502;7.414;2023-04-01T18:22:44;11.50;99.90
2543;DHT22;1116;51.502;7.414;2023-04-01T18:25:26;11.50;99.90
2543;DHT22;1116;51.502;7.414;2023-04-01T18:28:14;11.50;99.90
2543;DHT22;1116;51.502;7.414;2023-04-01T18:30:53;11.50;99.90
2543;DHT22;1116;51.502;7.414;2023-04-01T18:33:30;11.50;99.90
2543;DHT22;1116;51.502;7.414;2023-04-01T18:36:09;11.40;99.90
2543;DHT22;1116;51.502;7.414;2023-04-01T18:38:50;11.50;99.90
2543;DHT22;1116;51.502;7.414;2023-04-01T18:41:30;11.50;99.90
2543;DHT22;1116;51.502;7.414;2023-04-01T18:44:23;11.50;99.90
2543;DHT22;1116;51.502;7.414;2023-04-01T18:47:13;11.50;99.90
2543;DHT22;1116;51.502;7.414;2023-04-01T18:49:53;11.50;99.90
2543;DHT22;1116;51.502;7.414;2023-04-01T18:52:33;11.40;99.90
2543;DHT22;1116;51.502;7.414;2023-04-01T18:55:28;11.40;99.90
2543;DHT22;1116;51.502;7.414;2023-04-01T18:58:26;11.40;99.90
2543;DHT22;1116;51.502;7.414;2023-04-01T19:01:08;11.40;99.90
2543;DHT22;1116;51.502;7.414;2023-04-01T19:03:52;11.40;99.90
2543;DHT22;1116;51.502;7.414;2023-04-01T19:06:30;11.30;99.90
2543;DHT22;1116;51.502;7.414;2023-04-01T19:09:19;11.30;99.90
2543;DHT22;1116;51.502;7.414;2023-04-01T19:14:57;11.30;99.90
2543;DHT22;1116;51.502;7.414;2023-04-01T19:17:44;11.30;99.90
2543;DHT22;1116;51.502;7.414;2023-04-01T19:20:19;11.30;99.90